createdAt,value
2019-06-08T00:01:34.469Z,1.30
2019-06-08T00:04:02.883Z,0.90
2019-06-08T00:06:31.342Z,1.10
2019-06-08T00:08:59.833Z,1.00
2019-06-08T00:11:28.311Z,1.13
2019-06-08T00:13:56.724Z,1.30
2019-06-08T00:16:25.186Z,1.53
2019-06-08T00:18:53.610Z,1.17
2019-06-08T00:21:22.046Z,1.00
2019-06-08T00:23:50.497Z,1.20
2019-06-08T00:26:19.988Z,1.10
2019-06-08T00:28:48.596Z,1.10
2019-06-08T00:31:17.352Z,1.10
2019-06-08T00:33:45.931Z,1.00
2019-06-08T00:36:14.777Z,1.07
2019-06-08T00:38:43.496Z,1.40
2019-06-08T00:41:12.013Z,1.10
2019-06-08T00:43:40.593Z,0.90
2019-06-08T00:46:09.051Z,1.00
2019-06-08T00:48:37.525Z,1.10
2019-06-08T00:51:06.016Z,1.13
2019-06-08T00:53:34.454Z,1.20
2019-06-08T00:56:02.881Z,1.20
2019-06-08T00:58:31.321Z,1.17
2019-06-08T01:00:59.754Z,1.43
2019-06-08T01:03:28.234Z,1.20
2019-06-08T01:05:56.718Z,1.10
2019-06-08T01:08:25.542Z,1.10
2019-06-08T01:10:54.083Z,1.10
2019-06-08T01:13:22.936Z,1.00
2019-06-08T01:15:51.403Z,1.20
2019-06-08T01:18:22.140Z,1.07
2019-06-08T01:20:50.203Z,1.33
2019-06-08T01:23:19.517Z,1.00
2019-06-08T01:25:48.011Z,1.03
2019-06-08T01:28:16.429Z,1.00
2019-06-08T01:30:44.861Z,1.00
2019-06-08T01:33:13.280Z,1.30
2019-06-08T01:35:41.726Z,1.20
2019-06-08T01:38:10.171Z,1.20
2019-06-08T01:40:38.597Z,1.10
2019-06-08T01:43:07.015Z,1.27
2019-06-08T01:45:35.452Z,1.10
2019-06-08T01:48:19.575Z,1.10
2019-06-08T01:50:36.353Z,1.00
2019-06-08T01:53:05.900Z,1.07
2019-06-08T01:55:34.419Z,1.20
2019-06-08T01:58:02.990Z,1.30
2019-06-08T02:00:37.728Z,1.27
2019-06-08T02:03:01.720Z,1.30
2019-06-08T02:05:30.351Z,1.17
2019-06-08T02:07:59.191Z,1.23
2019-06-08T02:10:28.804Z,1.33
2019-06-08T02:12:57.479Z,1.53
2019-06-08T02:15:27.163Z,1.20
2019-06-08T02:17:55.792Z,1.17
2019-06-08T02:20:24.436Z,1.10
2019-06-08T02:22:52.913Z,1.23
2019-06-08T02:25:24.450Z,0.93
2019-06-08T02:27:52.900Z,1.00
2019-06-08T02:30:22.008Z,1.33
2019-06-08T02:32:50.493Z,1.20
2019-06-08T02:35:18.965Z,0.90
2019-06-08T02:37:47.394Z,1.27
2019-06-08T02:40:16.256Z,1.50
2019-06-08T02:42:44.693Z,1.40
2019-06-08T02:45:14.265Z,1.10
2019-06-08T02:47:42.725Z,1.20
2019-06-08T02:50:11.567Z,1.50
2019-06-08T02:52:43.448Z,1.23
2019-06-08T02:55:12.226Z,1.10
2019-06-08T02:57:42.489Z,1.20
2019-06-08T03:00:12.866Z,1.03
2019-06-08T03:02:43.478Z,1.30
2019-06-08T03:05:12.523Z,1.00
2019-06-08T03:07:42.744Z,1.30
2019-06-08T03:10:11.711Z,1.50
2019-06-08T03:12:42.442Z,1.67
2019-06-08T03:15:10.675Z,1.00
2019-06-08T03:17:40.119Z,1.20
2019-06-08T03:20:09.540Z,1.20
2019-06-08T03:22:40.774Z,1.10
2019-06-08T03:25:08.104Z,1.07
2019-06-08T03:27:37.287Z,1.30
2019-06-08T03:30:16.236Z,1.10
2019-06-08T03:32:45.932Z,1.20
2019-06-08T03:35:07.989Z,1.20
2019-06-08T03:37:37.922Z,1.00
2019-06-08T03:40:06.897Z,1.20
2019-06-08T03:42:35.308Z,1.37
2019-06-08T03:45:07.733Z,1.53
2019-06-08T03:47:37.141Z,1.40
2019-06-08T03:50:07.749Z,1.13
2019-06-08T03:52:37.763Z,1.00
2019-06-08T03:55:08.073Z,1.10
2019-06-08T03:57:38.087Z,1.50
2019-06-08T04:00:13.548Z,1.30
2019-06-08T04:02:39.913Z,1.53
2019-06-08T04:05:08.720Z,1.23
2019-06-08T04:07:37.562Z,1.10
2019-06-08T04:10:06.966Z,1.30
2019-06-08T04:12:35.643Z,1.40
2019-06-08T04:15:06.129Z,1.30
2019-06-08T04:17:34.538Z,0.90
2019-06-08T04:20:11.066Z,1.23
2019-06-08T04:22:35.641Z,1.20
2019-06-08T04:25:06.963Z,1.40
2019-06-08T04:27:35.364Z,1.10
2019-06-08T04:30:06.551Z,1.27
2019-06-08T04:32:34.959Z,1.10
2019-06-08T04:35:04.731Z,1.17
2019-06-08T04:37:33.147Z,1.37
2019-06-08T04:40:01.617Z,1.20
2019-06-08T04:42:30.095Z,1.40
2019-06-08T04:44:58.529Z,1.30
2019-06-08T04:47:26.980Z,1.30
2019-06-08T04:49:55.424Z,1.00
2019-06-08T04:52:23.987Z,1.30
2019-06-08T04:54:52.445Z,1.20
2019-06-08T04:57:20.852Z,1.30
2019-06-08T04:59:50.357Z,1.33
2019-06-08T05:02:19.103Z,1.20
2019-06-08T05:04:49.392Z,1.40
2019-06-08T05:07:18.002Z,1.10
2019-06-08T05:09:47.162Z,1.10
2019-06-08T05:12:15.836Z,1.80
2019-06-08T05:14:45.090Z,1.20
2019-06-08T05:17:13.705Z,1.33
2019-06-08T05:19:43.482Z,1.43
2019-06-08T05:22:12.086Z,1.20
2019-06-08T05:24:43.438Z,1.50
2019-06-08T05:27:11.992Z,1.60
2019-06-08T05:29:41.275Z,1.50
2019-06-08T05:32:09.902Z,1.23
2019-06-08T05:34:39.341Z,1.50
2019-06-08T05:37:08.159Z,1.63
2019-06-08T05:39:36.566Z,1.70
2019-06-08T05:42:05.029Z,1.80
2019-06-08T05:44:33.442Z,1.73
2019-06-08T05:47:01.867Z,1.20
2019-06-08T05:49:30.281Z,1.70
2019-06-08T05:51:58.745Z,1.60
2019-06-08T05:54:27.256Z,2.23
2019-06-08T05:56:55.734Z,2.20
2019-06-08T05:59:24.186Z,1.50
2019-06-08T06:01:52.648Z,1.60
2019-06-08T06:04:21.119Z,1.67
2019-06-08T06:06:50.823Z,1.70
2019-06-08T06:09:19.688Z,1.47
2019-06-08T06:11:48.918Z,1.87
2019-06-08T06:14:17.414Z,1.40
2019-06-08T06:16:46.929Z,1.83
2019-06-08T06:19:15.544Z,1.87
2019-06-08T06:21:45.563Z,1.30
2019-06-08T06:24:14.035Z,1.67
2019-06-08T06:26:43.240Z,1.90
2019-06-08T06:29:11.832Z,1.90
2019-06-08T06:31:41.549Z,1.60
2019-06-08T06:34:10.310Z,1.53
2019-06-08T06:36:38.747Z,2.10
2019-06-08T06:39:08.055Z,2.00
2019-06-08T06:41:36.498Z,1.83
2019-06-08T06:44:05.494Z,1.90
2019-06-08T06:46:34.102Z,2.10
2019-06-08T06:49:02.552Z,2.10
2019-06-08T06:51:33.892Z,1.97
2019-06-08T06:54:01.144Z,2.17
2019-06-08T06:56:29.588Z,2.17
2019-06-08T06:58:58.060Z,2.17
2019-06-08T07:01:26.466Z,2.07
2019-06-08T07:03:54.972Z,2.70
2019-06-08T07:06:23.416Z,2.30
2019-06-08T07:08:52.429Z,1.87
2019-06-08T07:11:21.185Z,1.90
2019-06-08T07:13:50.808Z,1.83
2019-06-08T07:16:19.556Z,2.00
2019-06-08T07:18:48.241Z,2.47
2019-06-08T07:21:16.742Z,2.00
2019-06-08T07:23:46.241Z,1.60
2019-06-08T07:26:14.865Z,2.00
2019-06-08T07:28:43.285Z,2.17
2019-06-08T07:31:11.737Z,2.30
2019-06-08T07:33:40.580Z,2.40
2019-06-08T07:36:09.041Z,1.90
2019-06-08T07:38:37.541Z,2.27
2019-06-08T07:41:06.083Z,1.97
2019-06-08T07:43:34.505Z,2.53
2019-06-08T07:46:02.953Z,2.13
2019-06-08T07:48:31.387Z,1.60
2019-06-08T07:50:59.828Z,2.57
2019-06-08T07:53:28.844Z,2.37
2019-06-08T07:55:58.135Z,2.00
2019-06-08T07:58:26.991Z,1.70
2019-06-08T08:00:59.842Z,1.83
2019-06-08T08:03:25.611Z,1.97
2019-06-08T08:05:55.063Z,1.87
2019-06-08T08:08:23.898Z,1.80
2019-06-08T08:10:52.401Z,2.00
2019-06-08T08:13:20.818Z,1.53
2019-06-08T08:15:49.263Z,1.40
2019-06-08T08:18:17.679Z,1.60
2019-06-08T08:20:46.122Z,1.60
2019-06-08T08:23:14.577Z,1.80
2019-06-08T08:25:43.015Z,1.57
2019-06-08T08:28:11.444Z,1.87
2019-06-08T08:30:39.888Z,1.47
2019-06-08T08:33:08.658Z,1.70
2019-06-08T08:35:38.084Z,1.90
2019-06-08T08:38:07.558Z,2.07
2019-06-08T08:40:38.608Z,1.43
2019-06-08T08:43:06.668Z,2.80
2019-06-08T08:45:37.223Z,1.30
2019-06-08T08:48:20.452Z,2.07
2019-06-08T08:50:35.631Z,2.00
2019-06-08T08:53:04.084Z,1.70
2019-06-08T08:55:32.498Z,2.50
2019-06-08T08:58:02.061Z,3.20
2019-06-08T09:00:30.756Z,1.80
2019-06-08T09:03:16.024Z,1.60
2019-06-08T09:05:29.357Z,1.57
2019-06-08T09:07:58.866Z,2.10
2019-06-08T09:10:28.152Z,1.20
2019-06-08T09:13:00.571Z,1.60
2019-06-08T09:15:31.203Z,2.07
2019-06-08T09:17:59.813Z,1.73
2019-06-08T09:20:28.567Z,2.00
2019-06-08T09:23:06.741Z,2.30
2019-06-08T09:25:28.039Z,1.70
2019-06-08T09:28:00.769Z,1.80
2019-06-08T09:30:27.524Z,1.77
2019-06-08T09:32:59.089Z,1.57
2019-06-08T09:35:28.025Z,1.73
2019-06-08T09:38:00.789Z,1.40
2019-06-08T09:40:31.882Z,1.63
2019-06-08T09:43:04.106Z,2.20
2019-06-08T09:45:28.938Z,1.80
2019-06-08T09:48:00.406Z,1.40
2019-06-08T09:50:27.954Z,1.50
2019-06-08T09:53:10.108Z,1.87
2019-06-08T09:55:28.724Z,1.50
2019-06-08T09:58:01.909Z,1.60
2019-06-08T10:00:29.323Z,1.47
2019-06-08T10:03:01.125Z,1.27
2019-06-08T10:05:27.711Z,1.33
2019-06-08T10:07:58.964Z,1.43
2019-06-08T10:10:26.335Z,1.53
2019-06-08T10:12:56.967Z,1.87
2019-06-08T10:15:27.724Z,1.90
2019-06-08T10:17:56.807Z,2.13
2019-06-08T10:20:25.495Z,1.60
2019-06-08T10:22:54.800Z,1.50
2019-06-08T10:25:23.368Z,1.53
2019-06-08T10:27:51.810Z,1.50
2019-06-08T10:30:20.671Z,1.90
2019-06-08T10:32:50.734Z,1.70
2019-06-08T10:35:21.071Z,1.73
2019-06-08T10:37:51.235Z,1.30
2019-06-08T10:40:20.285Z,1.67
2019-06-08T10:42:48.790Z,1.40
2019-06-08T10:45:18.842Z,1.30
2019-06-08T10:47:47.900Z,1.20
2019-06-08T10:50:19.369Z,1.60
2019-06-08T10:52:48.145Z,1.60
2019-06-08T10:55:18.000Z,1.80
2019-06-08T10:57:47.761Z,1.37
2019-06-08T11:00:24.163Z,1.10
2019-06-08T11:02:52.708Z,1.30
2019-06-08T11:05:21.225Z,1.30
2019-06-08T11:07:49.785Z,1.43
2019-06-08T11:10:19.127Z,1.90
2019-06-08T11:12:48.546Z,1.30
2019-06-08T11:15:17.734Z,1.20
2019-06-08T11:17:46.191Z,1.30
2019-06-08T11:20:14.867Z,1.80
2019-06-08T11:22:43.373Z,1.67
2019-06-08T11:25:16.243Z,1.20
2019-06-08T11:27:42.635Z,1.70
2019-06-08T11:30:20.455Z,5.30
2019-06-08T11:32:41.666Z,2.90
2019-06-08T11:35:12.559Z,1.47
2019-06-08T11:37:41.079Z,1.63
2019-06-08T11:40:12.403Z,1.10
2019-06-08T11:42:40.201Z,1.47
2019-06-08T11:45:12.566Z,1.27
2019-06-08T11:47:39.879Z,1.37
2019-06-08T11:50:12.748Z,1.60
2019-06-08T11:52:39.404Z,1.43
2019-06-08T11:55:11.237Z,1.20
2019-06-08T11:57:40.434Z,1.40
2019-06-08T12:00:23.432Z,1.10
2019-06-08T12:02:41.362Z,1.33
2019-06-08T12:05:12.614Z,1.50
2019-06-08T12:07:40.442Z,1.37
2019-06-08T12:10:10.974Z,1.40
2019-06-08T12:12:39.282Z,1.20
2019-06-08T12:15:11.181Z,1.33
2019-06-08T12:17:38.298Z,1.20
2019-06-08T12:20:08.609Z,1.60
2019-06-08T12:22:37.756Z,1.10
2019-06-08T12:25:08.179Z,1.43
2019-06-08T12:27:39.983Z,1.40
2019-06-08T12:30:11.235Z,1.50
2019-06-08T12:32:37.235Z,1.17
2019-06-08T12:35:08.187Z,1.10
2019-06-08T12:37:38.711Z,1.40
2019-06-08T12:40:09.728Z,1.20
2019-06-08T12:42:38.147Z,1.33
2019-06-08T12:45:07.403Z,1.53
2019-06-08T12:47:37.933Z,1.20
2019-06-08T12:50:09.006Z,0.93
2019-06-08T12:52:39.279Z,1.00
2019-06-08T12:55:15.517Z,1.10
2019-06-08T12:57:38.912Z,1.47
2019-06-08T13:00:09.860Z,1.10
2019-06-08T13:02:38.623Z,1.10
2019-06-08T13:05:11.978Z,1.30
2019-06-08T13:07:38.718Z,1.03
2019-06-08T13:10:08.895Z,1.00
2019-06-08T13:12:40.732Z,0.80
2019-06-08T13:15:09.535Z,1.00
2019-06-08T13:17:38.300Z,1.20
2019-06-08T13:20:22.366Z,1.30
2019-06-08T13:22:50.735Z,0.90
2019-06-08T13:25:36.180Z,1.20
2019-06-08T13:27:49.678Z,1.33
2019-06-08T13:30:25.386Z,1.60
2019-06-08T13:32:48.802Z,1.00
2019-06-08T13:35:20.536Z,1.10
2019-06-08T13:37:47.645Z,0.90
2019-06-08T13:40:20.043Z,1.00
2019-06-08T13:42:48.425Z,0.90
2019-06-08T13:45:20.323Z,1.10
2019-06-08T13:47:50.518Z,1.27
2019-06-08T13:50:20.434Z,1.40
2019-06-08T13:52:49.172Z,1.30
2019-06-08T13:55:36.011Z,1.53
2019-06-08T13:57:49.163Z,1.40
2019-06-08T14:00:21.794Z,1.50
2019-06-08T14:02:49.852Z,1.17
2019-06-08T14:05:25.894Z,1.50
2019-06-08T14:07:51.716Z,1.30
2019-06-08T14:10:24.467Z,1.60
2019-06-08T14:12:53.385Z,1.87
2019-06-08T14:15:21.976Z,1.50
2019-06-08T14:17:50.401Z,1.20
2019-06-08T14:20:24.374Z,1.40
2019-06-08T14:22:52.172Z,1.30
2019-06-08T14:25:22.822Z,1.43
2019-06-08T14:27:50.756Z,1.17
2019-06-08T14:30:20.853Z,1.30
2019-06-08T14:32:49.567Z,1.17
2019-06-08T14:35:20.569Z,1.23
2019-06-08T14:37:48.279Z,1.33
2019-06-08T14:40:17.282Z,1.40
2019-06-08T14:42:48.397Z,1.00
2019-06-08T14:45:18.173Z,1.50
2019-06-08T14:47:47.561Z,1.40
2019-06-08T14:50:19.486Z,1.60
2019-06-08T14:52:47.946Z,1.20
2019-06-08T14:55:19.816Z,1.23
2019-06-08T14:57:48.186Z,1.47
2019-06-08T15:00:21.283Z,1.40
2019-06-08T15:02:50.046Z,1.43
2019-06-08T15:05:19.855Z,1.30
2019-06-08T15:07:48.892Z,1.53
2019-06-08T15:10:18.194Z,1.60
2019-06-08T15:12:48.860Z,1.53
2019-06-08T15:15:18.741Z,1.53
2019-06-08T15:17:48.231Z,1.57
2019-06-08T15:20:17.637Z,1.30
2019-06-08T15:22:46.210Z,1.30
2019-06-08T15:25:14.873Z,1.47
2019-06-08T15:27:43.389Z,1.23
2019-06-08T15:30:13.059Z,1.30
2019-06-08T15:32:41.506Z,1.30
2019-06-08T15:35:10.163Z,1.23
2019-06-08T15:37:40.816Z,1.40
2019-06-08T15:40:09.166Z,1.50
2019-06-08T15:42:37.905Z,1.10
2019-06-08T15:45:08.349Z,1.27
2019-06-08T15:47:40.544Z,1.40
2019-06-08T15:50:08.877Z,1.20
2019-06-08T15:52:38.112Z,1.77
2019-06-08T15:55:10.891Z,1.20
2019-06-08T15:57:40.547Z,1.30
2019-06-08T16:00:10.151Z,1.27
2019-06-08T16:02:39.268Z,1.30
2019-06-08T16:05:08.134Z,1.50
2019-06-08T16:07:36.565Z,1.27
2019-06-08T16:10:07.129Z,1.33
2019-06-08T16:12:35.569Z,1.23
2019-06-08T16:15:06.195Z,1.20
2019-06-08T16:17:35.524Z,1.43
2019-06-08T16:20:05.596Z,1.83
2019-06-08T16:22:34.096Z,1.40
2019-06-08T16:25:02.674Z,1.50
2019-06-08T16:27:32.148Z,1.13
2019-06-08T16:30:08.720Z,1.40
2019-06-08T16:32:31.494Z,1.50
2019-06-08T16:35:00.138Z,2.00
2019-06-08T16:37:29.486Z,1.70
2019-06-08T16:39:58.184Z,1.37
2019-06-08T16:42:27.796Z,1.40
2019-06-08T16:44:56.607Z,1.10
2019-06-08T16:47:25.042Z,1.40
2019-06-08T16:49:53.507Z,1.53
2019-06-08T16:52:21.986Z,1.47
2019-06-08T16:54:50.453Z,1.60
2019-06-08T16:57:18.868Z,1.23
2019-06-08T16:59:47.381Z,1.30
2019-06-08T17:02:17.080Z,1.50
2019-06-08T17:04:45.754Z,1.20
2019-06-08T17:07:14.177Z,1.20
2019-06-08T17:09:42.723Z,1.40
2019-06-08T17:12:11.680Z,1.37
2019-06-08T17:14:40.655Z,2.33
2019-06-08T17:17:09.427Z,1.40
2019-06-08T17:19:38.449Z,1.70
2019-06-08T17:22:07.242Z,1.30
2019-06-08T17:24:36.735Z,1.20
2019-06-08T17:27:05.463Z,1.17
2019-06-08T17:29:34.887Z,1.30
2019-06-08T17:32:03.582Z,1.43
2019-06-08T17:34:32.036Z,1.27
2019-06-08T17:37:00.445Z,1.40
2019-06-08T17:39:29.562Z,1.63
2019-06-08T17:41:58.147Z,1.30
2019-06-08T17:44:26.755Z,1.50
2019-06-08T17:46:55.198Z,1.67
2019-06-08T17:49:23.718Z,1.80
2019-06-08T17:51:52.168Z,1.63
2019-06-08T17:54:20.634Z,1.60
2019-06-08T17:56:49.093Z,1.37
2019-06-08T17:59:17.584Z,1.17
2019-06-08T18:01:46.156Z,1.50
2019-06-08T18:04:14.714Z,1.60
2019-06-08T18:06:44.538Z,1.33
2019-06-08T18:09:13.178Z,1.53
2019-06-08T18:11:43.810Z,1.50
2019-06-08T18:14:12.816Z,1.63
2019-06-08T18:16:43.479Z,1.53
2019-06-08T18:19:29.014Z,1.40
2019-06-08T18:22:04.031Z,1.47
2019-06-08T18:24:28.639Z,1.43
2019-06-08T18:26:58.656Z,1.53
2019-06-08T18:29:27.660Z,1.40
2019-06-08T18:31:58.144Z,1.40
2019-06-08T18:34:28.465Z,1.70
2019-06-08T18:36:57.849Z,1.70
2019-06-08T18:39:28.693Z,1.60
2019-06-08T18:41:58.820Z,2.53
2019-06-08T18:44:28.495Z,1.43
2019-06-08T18:46:57.766Z,1.53
2019-06-08T18:49:28.943Z,1.70
2019-06-08T18:51:58.185Z,1.53
2019-06-08T18:54:27.986Z,1.97
2019-06-08T18:56:56.875Z,1.63
2019-06-08T18:59:25.318Z,2.13
2019-06-08T19:01:53.749Z,1.77
2019-06-08T19:04:22.211Z,2.07
2019-06-08T19:06:50.806Z,1.77
2019-06-08T19:09:19.272Z,2.23
2019-06-08T19:11:48.689Z,1.53
2019-06-08T19:14:20.604Z,2.37
2019-06-08T19:16:54.260Z,2.00
2019-06-08T19:19:18.337Z,2.27
2019-06-08T19:21:50.159Z,2.10
2019-06-08T19:24:18.148Z,2.20
2019-06-08T19:26:47.801Z,2.33
2019-06-08T19:29:19.128Z,1.40
2019-06-08T19:31:50.006Z,2.20
2019-06-08T19:34:18.124Z,1.67
2019-06-08T19:36:52.111Z,2.30
2019-06-08T19:39:17.805Z,2.03
2019-06-08T19:41:49.216Z,1.90
2019-06-08T19:44:18.307Z,1.87
2019-06-08T19:46:50.660Z,1.73
2019-06-08T19:49:17.418Z,1.67
2019-06-08T19:51:48.580Z,2.30
2019-06-08T19:54:18.275Z,2.30
2019-06-08T19:56:52.454Z,2.30
2019-06-08T19:59:17.916Z,2.13
2019-06-08T20:01:49.534Z,2.73
2019-06-08T20:04:18.241Z,2.10
2019-06-08T20:06:48.070Z,2.93
2019-06-08T20:09:17.626Z,2.30
2019-06-08T20:11:49.433Z,1.93
2019-06-08T20:14:16.326Z,1.73
2019-06-08T20:16:44.945Z,1.80
2019-06-08T20:19:13.417Z,2.30
2019-06-08T20:21:42.907Z,2.10
2019-06-08T20:24:11.559Z,2.60
2019-06-08T20:26:40.100Z,2.20
2019-06-08T20:29:13.546Z,2.40
2019-06-08T20:31:39.120Z,2.00
2019-06-08T20:34:07.634Z,2.63
2019-06-08T20:36:37.555Z,2.40
2019-06-08T20:39:07.883Z,1.83
2019-06-08T20:41:37.740Z,3.00
2019-06-08T20:44:08.547Z,2.80
2019-06-08T20:46:37.849Z,2.97
2019-06-08T20:49:08.398Z,2.97
2019-06-08T20:51:37.477Z,2.67
2019-06-08T20:54:07.958Z,3.40
2019-06-08T20:56:37.224Z,2.87
2019-06-08T20:59:08.011Z,2.93
2019-06-08T21:01:37.661Z,2.70
2019-06-08T21:04:07.633Z,2.57
2019-06-08T21:06:38.570Z,2.83
2019-06-08T21:09:07.863Z,2.67
2019-06-08T21:11:38.071Z,2.50
2019-06-08T21:14:06.722Z,2.80
2019-06-08T21:16:35.314Z,2.80
2019-06-08T21:19:03.843Z,3.20
2019-06-08T21:21:32.355Z,2.80
2019-06-08T21:24:01.412Z,2.67
2019-06-08T21:26:30.022Z,2.70
2019-06-08T21:29:00.415Z,3.13
2019-06-08T21:31:28.742Z,3.50
2019-06-08T21:34:00.748Z,4.00
2019-06-08T21:36:27.430Z,3.30
2019-06-08T21:39:01.941Z,3.70
2019-06-08T21:41:27.877Z,4.00
2019-06-08T21:44:00.685Z,3.63
2019-06-08T21:46:27.560Z,3.60
2019-06-08T21:48:56.892Z,3.00
2019-06-08T21:51:48.528Z,3.23
2019-06-08T21:54:17.583Z,3.03
2019-06-08T21:56:48.936Z,2.90
2019-06-08T21:59:18.209Z,3.10
2019-06-08T22:01:49.207Z,2.33
2019-06-08T22:04:18.501Z,3.50
2019-06-08T22:06:48.021Z,3.40
2019-06-08T22:09:17.656Z,3.40
2019-06-08T22:11:47.128Z,4.20
2019-06-08T22:14:15.860Z,4.23
2019-06-08T22:16:44.351Z,4.10
2019-06-08T22:19:12.808Z,3.37
2019-06-08T22:21:41.236Z,3.60
2019-06-08T22:24:09.685Z,3.20
2019-06-08T22:26:38.107Z,3.40
2019-06-08T22:29:07.832Z,3.47
2019-06-08T22:31:37.653Z,3.07
2019-06-08T22:34:06.269Z,3.10
2019-06-08T22:36:37.073Z,3.50
2019-06-08T22:39:08.050Z,3.23
2019-06-08T22:41:37.345Z,3.80
2019-06-08T22:44:08.119Z,3.93
2019-06-08T22:46:37.551Z,4.37
2019-06-08T22:49:08.081Z,3.57
2019-06-08T22:51:38.232Z,3.30
2019-06-08T22:54:07.996Z,4.37
2019-06-08T22:56:37.154Z,4.70
2019-06-08T22:59:08.996Z,4.23
2019-06-08T23:01:38.359Z,4.13
2019-06-08T23:04:08.924Z,3.83
2019-06-08T23:06:38.609Z,4.13
2019-06-08T23:09:08.729Z,4.10
2019-06-08T23:11:37.656Z,4.20
2019-06-08T23:14:12.356Z,3.33
2019-06-08T23:16:36.476Z,3.97
2019-06-08T23:19:05.266Z,4.00
2019-06-08T23:21:33.869Z,3.17
2019-06-08T23:24:02.881Z,4.10
2019-06-08T23:26:32.702Z,3.20
2019-06-08T23:29:02.273Z,4.43
2019-06-08T23:31:30.840Z,3.60
2019-06-08T23:34:02.192Z,5.17
2019-06-08T23:36:46.767Z,4.73
2019-06-08T23:39:01.018Z,4.63
2019-06-08T23:41:29.673Z,4.93
2019-06-08T23:43:59.443Z,4.20
2019-06-08T23:46:28.024Z,5.07
2019-06-08T23:48:58.871Z,4.93
2019-06-08T23:51:27.522Z,4.70
2019-06-08T23:53:58.277Z,4.40
2019-06-08T23:56:27.712Z,4.03
2019-06-08T23:58:56.401Z,4.47
